Time;durP1;ratioP1;P1;durP2;ratioP2;P2;SDS_P1;SDS_P2;PMS_P1;PMS_P2;Temp;Humidity;BMP_temperature;BMP_pressure;BME280_temperature;BME280_humidity;BME280_pressure;Samples;Min_cycle;Max_cycle;Signal;HPM_P1;HPM_P2
2022/04/16 00:00:27;;;;;;;2.38;1.08;;;15.30;51.30;;;;;;5115460;28;20031;-64
2022/04/16 00:02:54;;;;;;;1.05;0.70;;;15.30;51.30;;;;;;5114143;28;20031;-64
2022/04/16 00:05:23;;;;;;;1.63;1.02;;;15.30;51.40;;;;;;5114034;28;20047;-64
2022/04/16 00:08:06;;;;;;;1.92;0.77;;;15.30;51.30;;;;;;5114497;28;20051;-65
2022/04/16 00:10:33;;;;;;;2.38;0.85;;;15.20;51.30;;;;;;5113905;28;20243;-62
2022/04/16 00:12:59;;;;;;;2.10;1.08;;;15.20;51.30;;;;;;5114261;28;20118;-64
2022/04/16 00:15:26;;;;;;;1.80;1.48;;;15.20;51.30;;;;;;5113998;28;20131;-64
2022/04/16 00:17:52;;;;;;;2.10;0.88;;;15.20;51.30;;;;;;5115106;28;20043;-63
2022/04/16 00:20:18;;;;;;;2.78;1.20;;;15.20;51.40;;;;;;5115242;28;20490;-64
2022/04/16 00:22:44;;;;;;;1.30;1.00;;;15.20;51.30;;;;;;5113760;28;20028;-65
2022/04/16 00:25:10;;;;;;;1.00;0.77;;;15.20;51.40;;;;;;5115076;28;20065;-64
2022/04/16 00:27:36;;;;;;;1.60;1.42;;;15.20;51.40;;;;;;5113949;28;20047;-63
2022/04/16 00:30:04;;;;;;;2.20;1.10;;;15.20;51.40;;;;;;5114789;28;20387;-64
2022/04/16 00:32:30;;;;;;;2.20;1.20;;;15.10;51.40;;;;;;5113566;28;20070;-64
2022/04/16 00:34:55;;;;;;;2.13;1.88;;;15.10;52.10;;;;;;5113492;28;20074;-63
2022/04/16 00:37:21;;;;;;;1.55;1.42;;;15.10;51.30;;;;;;5112551;28;20039;-66
2022/04/16 00:39:46;;;;;;;2.10;1.25;;;15.10;51.40;;;;;;5113694;28;20077;-61
2022/04/16 00:42:12;;;;;;;2.30;0.98;;;15.10;51.40;;;;;;5113299;28;20372;-64
2022/04/16 00:44:38;;;;;;;1.67;1.27;;;15.10;51.40;;;;;;5114683;28;20078;-63
2022/04/16 00:47:05;;;;;;;1.67;0.90;;;15.10;51.40;;;;;;5114569;28;20052;-64
2022/04/16 00:49:30;;;;;;;1.92;1.23;;;15.10;51.50;;;;;;5113544;28;20039;-66
2022/04/16 00:51:56;;;;;;;2.33;1.30;;;15.10;51.50;;;;;;5113199;28;20039;-65
2022/04/16 00:54:22;;;;;;;1.83;1.45;;;15.10;51.50;;;;;;5113356;28;20318;-65
2022/04/16 00:56:48;;;;;;;1.80;1.20;;;15.10;51.50;;;;;;5112982;28;20551;-66
2022/04/16 00:59:13;;;;;;;1.48;1.10;;;15.00;51.50;;;;;;5114751;28;20383;-66
2022/04/16 01:01:40;;;;;;;1.90;1.40;;;15.00;51.50;;;;;;5112948;28;20173;-66
2022/04/16 01:04:07;;;;;;;3.80;1.83;;;15.00;51.50;;;;;;5112923;28;20042;-65
2022/04/16 01:06:42;;;;;;;2.28;1.23;;;15.00;51.50;;;;;;5113219;28;20054;-67
2022/04/16 01:09:08;;;;;;;2.92;1.55;;;15.00;51.60;;;;;;5113138;28;20055;-61
2022/04/16 01:11:34;;;;;;;3.03;1.33;;;15.00;51.60;;;;;;5114208;28;20323;-64
2022/04/16 01:14:01;;;;;;;2.42;0.90;;;15.00;51.60;;;;;;5112743;28;20337;-63
2022/04/16 01:16:30;;;;;;;2.58;1.00;;;15.00;51.60;;;;;;5112771;28;20043;-61
2022/04/16 01:18:56;;;;;;;1.90;0.85;;;14.90;51.60;;;;;;5112649;28;20096;-64
2022/04/16 01:21:24;;;;;;;1.83;1.27;;;15.00;51.60;;;;;;5112878;28;20043;-64
2022/04/16 01:23:50;;;;;;;2.22;1.05;;;14.90;51.60;;;;;;5112885;28;20075;-63
2022/04/16 01:26:16;;;;;;;2.00;1.42;;;14.90;51.60;;;;;;5113174;28;20043;-61
2022/04/16 01:28:45;;;;;;;3.13;1.45;;;14.90;51.60;;;;;;5114252;28;20039;-64
2022/04/16 01:31:10;;;;;;;1.88;1.15;;;14.90;52.30;;;;;;5112355;28;20040;-63
2022/04/16 01:33:36;;;;;;;1.92;1.38;;;14.90;51.60;;;;;;5112570;28;20118;-64
2022/04/16 01:36:02;;;;;;;2.03;1.40;;;14.90;51.60;;;;;;5112351;28;20490;-63
2022/04/16 01:38:27;;;;;;;1.98;1.15;;;14.90;51.60;;;;;;5113904;28;20032;-61
2022/04/16 01:40:55;;;;;;;2.25;0.93;;;14.90;51.60;;;;;;5112537;28;20100;-62
2022/04/16 01:43:24;;;;;;;3.85;1.25;;;14.90;51.60;;;;;;5113478;28;20035;-60
2022/04/16 01:45:50;;;;;;;1.63;1.48;;;14.80;51.50;;;;;;5112144;28;20546;-63
2022/04/16 01:48:17;;;;;;;2.88;1.50;;;14.80;51.60;;;;;;5112149;28;20135;-60
2022/04/16 01:50:43;;;;;;;2.30;1.50;;;14.80;51.60;;;;;;5112294;28;20059;-64
2022/04/16 01:53:09;;;;;;;2.53;1.50;;;14.80;51.60;;;;;;5113322;28;20047;-64
2022/04/16 01:55:34;;;;;;;3.53;1.40;;;14.80;51.60;;;;;;5111928;28;20076;-66
2022/04/16 01:58:02;;;;;;;1.67;1.40;;;14.80;51.60;;;;;;5113178;28;20040;-65
2022/04/16 02:00:28;;;;;;;2.25;1.38;;;14.80;51.60;;;;;;5111956;28;20044;-65
2022/04/16 02:02:54;;;;;;;2.00;1.20;;;14.80;51.60;;;;;;5112094;28;20061;-65
2022/04/16 02:05:23;;;;;;;2.20;1.70;;;14.80;51.60;;;;;;5111498;28;20043;-60
2022/04/16 02:07:50;;;;;;;2.28;1.85;;;14.80;52.40;;;;;;5113185;28;20133;-65
2022/04/16 02:10:16;;;;;;;2.08;1.40;;;14.80;51.60;;;;;;5112919;28;20043;-63
2022/04/16 02:12:42;;;;;;;2.38;1.38;;;14.80;51.70;;;;;;5111700;28;20040;-65
2022/04/16 02:15:09;;;;;;;2.58;1.48;;;14.80;51.70;;;;;;5111800;28;20046;-65
2022/04/16 02:17:38;;;;;;;3.70;1.55;;;14.70;51.60;;;;;;5111827;28;20032;-64
2022/04/16 02:20:07;;;;;;;2.17;1.30;;;14.80;51.70;;;;;;5111456;28;20047;-64
2022/04/16 02:22:42;;;;;;;1.95;1.30;;;14.70;51.60;;;;;;5112889;28;20042;-64
2022/04/16 02:25:09;;;;;;;2.58;1.70;;;14.80;51.70;;;;;;5112782;28;20040;-64
2022/04/16 02:27:35;;;;;;;2.53;1.52;;;14.80;51.70;;;;;;5111875;28;20050;-63
2022/04/16 02:30:06;;;;;;;2.78;1.33;;;14.70;51.70;;;;;;5111868;28;20032;-64
2022/04/16 02:32:35;;;;;;;3.05;2.00;;;14.70;51.70;;;;;;5112490;28;20110;-64
2022/04/16 02:35:01;;;;;;;1.98;1.17;;;14.70;51.70;;;;;;5111495;28;20071;-64
2022/04/16 02:37:26;;;;;;;1.48;1.33;;;14.70;51.70;;;;;;5111298;28;20070;-61
2022/04/16 02:39:52;;;;;;;2.03;1.48;;;14.70;51.70;;;;;;5111278;28;20046;-63
2022/04/16 02:42:18;;;;;;;1.95;1.70;;;14.70;51.70;;;;;;5112346;28;20050;-61
2022/04/16 02:47:30;;;;;;;3.60;2.17;;;14.70;52.50;;;;;;5111138;28;20048;-60
2022/04/16 02:49:58;;;;;;;1.95;1.70;;;14.70;51.70;;;;;;5111928;28;20446;-65
2022/04/16 02:52:27;;;;;;;3.40;1.30;;;14.70;51.70;;;;;;5110935;28;20044;-64
2022/04/16 02:54:52;;;;;;;2.90;1.60;;;14.70;51.70;;;;;;5111281;28;20100;-64
2022/04/16 02:57:21;;;;;;;3.50;2.03;;;14.70;51.70;;;;;;5110660;28;20049;-65
2022/04/16 02:59:47;;;;;;;1.77;1.52;;;14.60;51.60;;;;;;5111269;28;20042;-64
2022/04/16 03:02:13;;;;;;;2.55;1.67;;;14.60;51.60;;;;;;5094074;28;20502;-64
2022/04/16 03:04:39;;;;;;;1.90;1.40;;;14.60;51.60;;;;;;5110340;28;20035;-64
2022/04/16 03:07:05;;;;;;;3.83;1.95;;;14.60;52.40;;;;;;5112107;28;20043;-64
2022/04/16 03:09:30;;;;;;;1.75;1.35;;;14.60;51.70;;;;;;5112197;28;20042;-64
2022/04/16 03:11:57;;;;;;;2.03;1.60;;;14.60;51.70;;;;;;5111090;28;20394;-60
2022/04/16 03:17:39;;;;;;;2.30;1.58;;;14.60;51.60;;;;;;5110614;28;20052;-63
2022/04/16 03:19:54;;;;;;;2.40;2.03;;;14.60;51.60;;;;;;5114859;28;20499;-64
2022/04/16 03:22:20;;;;;;;2.85;1.58;;;14.60;51.60;;;;;;5116187;28;20046;-64
2022/04/16 03:24:45;;;;;;;4.35;2.05;;;14.50;51.60;;;;;;5116398;28;20391;-64
2022/04/16 03:27:11;;;;;;;2.08;1.58;;;14.50;51.60;;;;;;5116156;28;20079;-64
2022/04/16 03:29:40;;;;;;;2.20;1.90;;;14.50;51.60;;;;;;5116229;28;20055;-64
2022/04/16 03:32:06;;;;;;;3.75;1.98;;;14.50;51.70;;;;;;5114727;28;20074;-63
2022/04/16 03:34:32;;;;;;;2.90;1.80;;;14.50;52.30;;;;;;5114993;28;20079;-64
2022/04/16 03:36:58;;;;;;;3.13;1.80;;;14.50;51.70;;;;;;5114594;28;20067;-64
2022/04/16 03:39:24;;;;;;;2.60;1.90;;;14.50;51.70;;;;;;5114650;28;20042;-64
2022/04/16 03:41:49;;;;;;;1.80;1.50;;;14.40;51.70;;;;;;5114610;28;20047;-64
2022/04/16 03:44:15;;;;;;;2.40;2.13;;;14.50;51.70;;;;;;5115670;28;20039;-64
2022/04/16 03:46:41;;;;;;;2.05;1.83;;;14.40;51.60;;;;;;5115831;28;20046;-64
2022/04/16 03:49:06;;;;;;;2.38;1.60;;;14.50;51.70;;;;;;5115689;28;20040;-62
2022/04/16 03:51:32;;;;;;;3.63;2.20;;;14.50;51.70;;;;;;5114615;28;20082;-64
2022/04/16 03:59:59;;;;;;;2.83;2.50;;;14.50;51.70;;;;;;5115574;28;20061;-63
2022/04/16 04:00:03;;;;;;;2.78;1.73;;;14.40;51.70;;;;;;5115230;28;20048;-64
2022/04/16 04:02:15;;;;;;;3.00;2.47;;;14.40;51.70;;;;;;5115270;28;20104;-64
2022/04/16 04:04:43;;;;;;;2.65;2.45;;;14.40;51.70;;;;;;5114002;28;20486;-63
2022/04/16 04:07:10;;;;;;;2.70;2.15;;;14.40;51.70;;;;;;5114545;28;20043;-64
2022/04/16 04:09:39;;;;;;;2.45;2.25;;;14.40;51.70;;;;;;5114416;28;20443;-64
2022/04/16 04:12:10;;;;;;;2.80;2.40;;;14.40;51.80;;;;;;5114084;28;20062;-64
2022/04/16 04:14:38;;;;;;;2.90;2.60;;;14.40;51.80;;;;;;5115175;28;20120;-64
2022/04/16 04:17:06;;;;;;;3.65;2.60;;;14.40;51.90;;;;;;5115500;28;20092;-64
2022/04/16 04:19:34;;;;;;;3.10;2.60;;;14.40;51.90;;;;;;5115293;28;20126;-63
2022/04/16 04:22:00;;;;;;;3.80;2.70;;;14.40;51.90;;;;;;5115211;28;20491;-62
2022/04/16 04:24:25;;;;;;;3.55;2.75;;;14.40;51.90;;;;;;5114054;28;20105;-64
2022/04/16 04:26:55;;;;;;;3.28;2.53;;;14.40;51.90;;;;;;5113960;28;20048;-64
2022/04/16 04:29:20;;;;;;;3.33;3.03;;;14.40;51.90;;;;;;5114381;28;20376;-64
2022/04/16 04:31:46;;;;;;;3.58;2.65;;;14.40;52.00;;;;;;5113908;28;20089;-61
2022/04/16 04:34:12;;;;;;;4.18;3.55;;;14.40;52.10;;;;;;5112940;28;20394;-64
2022/04/16 04:36:37;;;;;;;3.60;2.92;;;14.40;52.10;;;;;;5114496;28;20065;-65
2022/04/16 04:39:03;;;;;;;3.53;3.20;;;14.40;52.10;;;;;;5113658;28;20066;-64
2022/04/16 04:41:28;;;;;;;3.47;3.05;;;14.40;52.10;;;;;;5114733;28;20398;-63
2022/04/16 04:43:57;;;;;;;3.13;2.88;;;14.40;52.10;;;;;;5113512;28;20027;-64
2022/04/16 04:46:22;;;;;;;3.80;3.50;;;14.40;52.20;;;;;;5113277;28;20119;-63
2022/04/16 04:48:48;;;;;;;4.30;3.88;;;14.40;52.30;;;;;;5114876;28;20352;-64
2022/04/16 04:51:14;;;;;;;3.97;3.60;;;14.40;52.30;;;;;;5113485;28;20047;-64
2022/04/16 04:53:39;;;;;;;4.13;3.47;;;14.40;52.40;;;;;;5114484;28;20043;-60
2022/04/16 04:56:05;;;;;;;3.53;3.22;;;14.40;52.40;;;;;;5112826;28;20075;-64
2022/04/16 04:58:31;;;;;;;3.42;3.13;;;14.40;52.40;;;;;;5113448;28;20048;-64
2022/04/16 05:00:57;;;;;;;4.43;3.65;;;14.40;52.40;;;;;;5115084;28;20073;-63
2022/04/16 05:03:23;;;;;;;3.90;3.50;;;14.40;52.40;;;;;;5114772;28;20552;-61
2022/04/16 05:05:49;;;;;;;4.15;3.17;;;14.40;52.40;;;;;;5113097;28;20069;-66
2022/04/16 05:08:17;;;;;;;5.13;3.70;;;14.40;52.50;;;;;;5114340;28;20035;-63
2022/04/16 05:10:43;;;;;;;4.47;3.63;;;14.40;52.60;;;;;;5112756;28;20475;-64
2022/04/16 05:13:08;;;;;;;4.80;3.85;;;14.40;52.50;;;;;;5114196;28;20039;-63
2022/04/16 05:15:34;;;;;;;3.92;3.13;;;14.40;52.60;;;;;;5113967;28;20040;-63
2022/04/16 05:18:00;;;;;;;4.15;3.30;;;14.30;52.50;;;;;;5112680;28;20061;-63
2022/04/16 05:20:25;;;;;;;3.08;2.53;;;14.40;52.60;;;;;;5112926;28;20075;-60
2022/04/16 05:22:51;;;;;;;3.70;3.40;;;14.30;52.60;;;;;;5113198;28;20394;-65
2022/04/16 05:25:20;;;;;;;3.35;3.05;;;14.30;52.60;;;;;;5112779;28;20118;-64
2022/04/16 05:27:46;;;;;;;3.63;3.10;;;14.40;52.60;;;;;;5112488;28;20092;-63
2022/04/16 05:30:14;;;;;;;3.70;3.20;;;14.30;52.60;;;;;;5112538;28;20043;-62
2022/04/16 05:32:42;;;;;;;3.58;3.25;;;14.30;52.60;;;;;;5112290;28;20054;-64
2022/04/16 05:35:09;;;;;;;3.97;3.53;;;14.40;52.60;;;;;;5112457;28;20505;-63
2022/04/16 05:37:36;;;;;;;4.03;3.38;;;14.40;52.60;;;;;;5112289;28;20043;-63
2022/04/16 05:40:03;;;;;;;4.00;3.25;;;14.40;52.60;;;;;;5111940;28;20035;-61
2022/04/16 05:42:39;;;;;;;3.75;3.15;;;14.30;52.60;;;;;;5113304;28;20407;-64
2022/04/16 05:45:06;;;;;;;4.15;3.00;;;14.40;52.70;;;;;;5111810;28;20047;-60
2022/04/16 05:47:31;;;;;;;3.58;2.80;;;14.40;52.60;;;;;;5112295;28;20078;-63
2022/04/16 05:49:57;;;;;;;2.58;2.38;;;14.40;52.50;;;;;;5112463;28;20051;-63
2022/04/16 05:52:23;;;;;;;3.08;2.40;;;14.40;52.50;;;;;;5112047;28;20396;-64
2022/04/16 05:54:50;;;;;;;3.13;2.75;;;14.40;52.50;;;;;;5111953;28;20043;-64
2022/04/16 05:57:17;;;;;;;3.33;3.03;;;14.40;52.50;;;;;;5111743;28;20058;-64
2022/04/16 05:59:43;;;;;;;2.95;2.45;;;14.40;52.40;;;;;;5111805;28;20043;-62
2022/04/16 06:02:10;;;;;;;3.85;3.17;;;14.40;52.40;;;;;;5111798;28;20406;-63
2022/04/16 06:04:36;;;;;;;4.10;3.28;;;14.40;52.40;;;;;;5113058;28;20085;-64
2022/04/16 06:07:02;;;;;;;3.47;3.17;;;14.50;52.40;;;;;;5111899;28;20040;-63
2022/04/16 06:09:28;;;;;;;3.38;3.05;;;14.50;52.40;;;;;;5111696;28;20418;-64
2022/04/16 06:12:01;;;;;;;3.70;2.80;;;14.50;52.30;;;;;;5111827;28;20039;-63
2022/04/16 06:14:27;;;;;;;3.05;2.75;;;14.50;52.30;;;;;;5112805;28;20032;-64
2022/04/16 06:16:52;;;;;;;3.63;2.83;;;14.50;52.30;;;;;;5111500;28;20032;-63
2022/04/16 06:19:18;;;;;;;4.43;2.78;;;14.50;52.30;;;;;;5112791;28;20363;-63
2022/04/16 06:21:44;;;;;;;3.38;2.95;;;14.50;52.30;;;;;;5111517;28;20070;-60
2022/04/16 06:24:09;;;;;;;3.83;3.42;;;14.50;52.30;;;;;;5111343;28;20098;-64
2022/04/16 06:26:35;;;;;;;5.32;3.55;;;14.50;52.40;;;;;;5111381;28;20048;-64
2022/04/16 06:29:01;;;;;;;3.75;3.30;;;14.50;52.30;;;;;;5112632;28;20111;-64
2022/04/16 06:31:26;;;;;;;4.03;3.63;;;14.50;52.30;;;;;;5112531;28;20131;-65
2022/04/16 06:33:55;;;;;;;4.40;3.35;;;14.60;52.30;;;;;;5112795;28;20394;-64
2022/04/16 06:36:21;;;;;;;3.97;3.58;;;14.50;52.30;;;;;;5111303;28;20048;-64
2022/04/16 06:38:49;;;;;;;4.75;3.50;;;14.50;52.30;;;;;;5111259;28;20552;-63
2022/04/16 06:41:14;;;;;;;5.28;4.07;;;14.60;52.50;;;;;;5111664;28;20107;-61
2022/04/16 06:43:40;;;;;;;4.32;3.72;;;14.60;52.50;;;;;;5112356;28;20621;-60
2022/04/16 06:46:06;;;;;;;4.90;4.00;;;14.50;52.50;;;;;;5112445;28;20122;-63
2022/04/16 06:48:31;;;;;;;3.50;3.20;;;14.60;52.50;;;;;;5111660;28;20482;-64
2022/04/16 06:50:57;;;;;;;5.75;4.40;;;14.60;52.50;;;;;;5112539;28;20027;-64
2022/04/16 06:53:26;;;;;;;4.18;3.17;;;14.60;52.50;;;;;;5112200;28;20119;-64
2022/04/16 06:55:51;;;;;;;4.88;3.75;;;14.60;52.50;;;;;;5111941;28;20093;-64
2022/04/16 06:58:17;;;;;;;5.07;4.45;;;14.60;52.50;;;;;;5112310;28;20040;-63
2022/04/16 07:00:42;;;;;;;6.75;3.85;;;14.60;52.50;;;;;;5111100;28;20045;-64
2022/04/16 07:03:11;;;;;;;3.63;3.17;;;14.60;52.60;;;;;;5111850;28;20108;-63
2022/04/16 07:05:36;;;;;;;3.78;3.10;;;14.60;52.50;;;;;;5111175;28;20043;-64
2022/04/16 07:08:02;;;;;;;4.25;3.47;;;14.60;52.50;;;;;;5111210;28;20461;-61
2022/04/16 07:10:28;;;;;;;5.10;3.80;;;14.60;52.50;;;;;;5112097;28;20105;-63
2022/04/16 07:12:53;;;;;;;4.32;3.20;;;14.60;52.50;;;;;;5111196;28;20372;-63
2022/04/16 07:15:19;;;;;;;5.35;3.42;;;14.60;52.50;;;;;;5110942;28;20036;-63
2022/04/16 07:17:45;;;;;;;4.55;3.38;;;14.60;52.50;;;;;;5110792;28;20043;-64
2022/04/16 07:20:11;;;;;;;3.80;3.33;;;14.60;52.40;;;;;;5112106;28;20039;-64
2022/04/16 07:22:37;;;;;;;4.43;3.45;;;14.70;52.50;;;;;;5111939;28;20375;-64
2022/04/16 07:25:05;;;;;;;4.10;3.58;;;14.70;52.50;;;;;;5110966;28;20126;-64
2022/04/16 07:27:31;;;;;;;3.67;2.97;;;14.70;52.40;;;;;;5115111;28;20078;-63
2022/04/16 07:29:58;;;;;;;4.43;4.00;;;14.70;52.30;;;;;;5111958;28;20416;-65
2022/04/16 07:32:26;;;;;;;4.13;3.47;;;14.70;52.30;;;;;;5110946;28;20039;-64
2022/04/16 07:34:52;;;;;;;3.55;3.20;;;14.70;52.40;;;;;;5112148;28;20036;-63
2022/04/16 07:37:17;;;;;;;4.47;3.33;;;14.70;52.40;;;;;;5112093;28;20065;-63
2022/04/16 07:39:43;;;;;;;3.67;2.97;;;14.70;52.30;;;;;;5110592;28;20044;-63
2022/04/16 07:42:09;;;;;;;4.30;3.35;;;14.70;52.20;;;;;;5093723;28;20048;-63
2022/04/16 07:44:35;;;;;;;4.03;3.38;;;14.80;52.30;;;;;;5110922;28;20062;-62
2022/04/16 07:47:03;;;;;;;4.22;3.00;;;14.70;52.20;;;;;;5111780;28;20040;-60
2022/04/16 07:49:29;;;;;;;5.10;2.78;;;14.80;52.20;;;;;;5110579;28;20043;-61
2022/04/16 07:51:55;;;;;;;3.00;2.67;;;14.80;52.20;;;;;;5111830;28;20039;-63
2022/04/16 07:54:20;;;;;;;3.63;2.97;;;14.80;52.10;;;;;;5110619;28;20285;-63
2022/04/16 07:56:46;;;;;;;4.43;2.65;;;14.80;52.00;;;;;;5110179;28;20048;-64
2022/04/16 07:59:12;;;;;;;3.78;2.95;;;14.80;51.90;;;;;;5110740;28;20028;-63
2022/04/16 08:01:38;;;;;;;3.42;2.45;;;14.80;51.90;;;;;;5110646;28;20433;-60
2022/04/16 08:04:04;;;;;;;4.68;3.35;;;14.90;51.90;;;;;;5113218;28;20055;-63
2022/04/16 08:06:30;;;;;;;3.28;2.28;;;14.90;51.90;;;;;;5115512;28;20039;-60
2022/04/16 08:09:01;;;;;;;5.57;3.55;;;14.90;51.90;;;;;;5115463;28;20063;-60
2022/04/16 08:11:30;;;;;;;;;;;14.90;52.00;;;;;;5114808;28;20372;-63
2022/04/16 08:13:56;;;;;;;3.50;2.70;;;14.80;52.70;;;;;;5114022;28;20401;-63
2022/04/16 08:16:21;;;;;;;3.75;2.95;;;14.80;51.90;;;;;;5114999;28;20054;-64
2022/04/16 08:18:47;;;;;;;5.53;3.20;;;14.80;51.90;;;;;;5114175;28;20043;-60
2022/04/16 08:21:13;;;;;;;4.82;2.72;;;14.80;51.90;;;;;;5113778;28;20433;-60
2022/04/16 08:23:44;;;;;;;4.00;2.38;;;14.90;51.90;;;;;;5113835;28;20039;-60
2022/04/16 08:26:11;;;;;;;2.60;2.17;;;14.90;51.90;;;;;;5114052;28;20085;-65
2022/04/16 08:28:37;;;;;;;3.33;2.67;;;14.80;51.90;;;;;;5113656;28;20062;-60
2022/04/16 08:31:03;;;;;;;3.10;2.70;;;14.90;51.90;;;;;;5114842;28;20039;-60
2022/04/16 08:33:28;;;;;;;4.20;2.50;;;14.90;51.90;;;;;;5115048;28;20127;-60
2022/04/16 08:35:54;;;;;;;3.70;2.50;;;14.90;51.90;;;;;;5114806;28;20035;-64
2022/04/16 08:38:20;;;;;;;3.75;2.90;;;14.90;51.90;;;;;;5112778;28;20042;-64
2022/04/16 08:40:47;;;;;;;3.85;3.00;;;14.90;51.90;;;;;;5113580;28;20139;-64
2022/04/16 08:43:14;;;;;;;3.40;2.20;;;14.90;51.80;;;;;;5113426;28;20036;-60
2022/04/16 08:45:41;;;;;;;3.47;2.42;;;14.90;51.80;;;;;;5113273;28;20117;-63
2022/04/16 08:48:06;;;;;;;3.33;2.15;;;14.90;51.80;;;;;;5114688;28;20047;-64
2022/04/16 08:50:33;;;;;;;2.83;2.20;;;14.90;51.80;;;;;;5114793;28;20065;-63
2022/04/16 08:52:59;;;;;;;5.00;2.63;;;14.90;51.80;;;;;;5113202;28;20494;-63
2022/04/16 08:55:25;;;;;;;2.90;2.15;;;14.90;51.70;;;;;;5113257;28;20073;-65
2022/04/16 08:57:55;;;;;;;4.68;1.92;;;15.00;51.60;;;;;;5112825;28;20056;-62
2022/04/16 09:00:21;;;;;;;2.45;1.70;;;15.00;51.50;;;;;;5113337;28;20039;-65
2022/04/16 09:02:51;;;;;;;2.75;2.05;;;15.00;51.30;;;;;;5114261;28;20251;-62
2022/04/16 09:05:18;;;;;;;3.83;1.90;;;15.00;51.00;;;;;;5114407;28;20081;-65
2022/04/16 09:07:47;;;;;;;2.78;1.52;;;15.10;50.70;;;;;;5112856;28;20048;-65
2022/04/16 09:10:13;;;;;;;2.20;1.23;;;15.10;50.30;;;;;;5113249;28;20047;-66
2022/04/16 09:12:39;;;;;;;3.08;1.38;;;15.20;49.90;;;;;;5112893;28;20134;-66
2022/04/16 09:15:08;;;;;;;2.95;1.70;;;15.20;49.80;;;;;;5113044;28;20035;-65
2022/04/16 09:17:33;;;;;;;1.60;0.82;;;15.20;49.50;;;;;;5114365;28;20425;-65
2022/04/16 09:19:59;;;;;;;1.60;0.90;;;15.30;49.50;;;;;;5114218;28;20032;-65
2022/04/16 09:22:33;;;;;;;3.55;1.85;;;15.30;49.30;;;;;;5113119;28;20044;-65
2022/04/16 09:24:59;;;;;;;1.65;1.15;;;15.30;49.10;;;;;;5112792;28;20047;-64
2022/04/16 09:27:25;;;;;;;1.77;1.20;;;15.30;49.00;;;;;;5114048;28;20130;-62
2022/04/16 09:29:53;;;;;;;2.03;0.93;;;15.40;48.70;;;;;;5112657;28;20050;-65
2022/04/16 09:32:23;;;;;;;1.45;0.77;;;15.40;48.30;;;;;;5114062;28;20099;-65
2022/04/16 09:34:49;;;;;;;1.40;0.80;;;15.40;47.80;;;;;;5113003;28;20035;-65
2022/04/16 09:37:15;;;;;;;1.27;0.90;;;15.50;47.50;;;;;;5112809;28;20438;-62
2022/04/16 09:39:40;;;;;;;1.30;0.50;;;15.60;47.30;;;;;;5112522;28;20493;-65
2022/04/16 09:42:06;;;;;;;1.48;1.08;;;15.80;47.00;;;;;;5112030;28;20040;-63
2022/04/16 09:44:32;;;;;;;1.40;0.60;;;15.90;46.60;;;;;;5112775;28;20124;-66
2022/04/16 09:46:58;;;;;;;1.25;0.70;;;16.00;46.20;;;;;;5112991;28;20134;-65
2022/04/16 09:49:25;;;;;;;2.05;0.70;;;16.10;45.90;;;;;;5112398;28;20482;-65
2022/04/16 09:51:51;;;;;;;3.83;0.70;;;16.20;45.70;;;;;;5112466;28;20448;-65
2022/04/16 09:54:18;;;;;;;0.90;0.50;;;16.20;45.30;;;;;;5113417;28;20036;-66
2022/04/16 09:56:48;;;;;;;1.60;0.50;;;16.30;45.20;;;;;;5111698;28;20406;-65
2022/04/16 09:59:16;;;;;;;1.88;0.60;;;16.30;45.00;;;;;;5113114;28;20071;-65
2022/04/16 10:01:50;;;;;;;2.00;0.50;;;16.40;44.90;;;;;;5111913;28;20152;-62
2022/04/16 10:04:17;;;;;;;1.77;0.45;;;16.40;44.70;;;;;;5113305;28;20382;-63
2022/04/16 10:06:44;;;;;;;0.77;0.57;;;16.50;44.70;;;;;;5113088;28;20092;-65
2022/04/16 10:09:13;;;;;;;1.25;0.40;;;16.50;44.60;;;;;;5111946;28;20080;-66
2022/04/16 10:12:59;;;;;;;0.68;0.47;;;16.60;44.40;;;;;;5111927;28;20054;-66
2022/04/16 10:17:32;;;;;;;1.20;0.40;;;16.60;44.00;;;;;;5089348;28;20503;-64
2022/04/16 10:20:19;;;;;;;1.02;0.30;;;16.70;43.80;;;;;;5089400;28;20560;-64
2022/04/16 10:25:40;;;;;;;0.70;0.30;;;16.70;43.10;;;;;;5130282;27;20354;-60
2022/04/16 10:28:08;;;;;;;0.40;0.20;;;16.80;42.80;;;;;;5146503;27;20078;-65
2022/04/16 10:38:40;;;;;;;0.77;0.40;;;16.70;42.10;;;;;;5130301;27;20362;-64
2022/04/16 10:41:17;;;;;;;1.95;0.30;;;16.80;42.10;;;;;;5128921;28;20032;-64
2022/04/16 10:43:57;;;;;;;1.63;0.50;;;16.80;41.80;;;;;;5129148;28;20398;-64
2022/04/16 10:46:24;;;;;;;0.93;0.20;;;16.70;41.90;;;;;;5128347;27;20039;-60
2022/04/16 10:48:51;;;;;;;0.95;0.40;;;16.80;42.90;;;;;;5130273;27;20047;-60
2022/04/16 10:51:22;;;;;;;0.40;0.20;;;16.70;41.90;;;;;;5128749;28;20521;-65
2022/04/16 10:53:47;;;;;;;1.65;0.20;;;16.70;41.90;;;;;;5129931;28;20032;-62
2022/04/16 10:56:17;;;;;;;0.88;0.20;;;16.60;42.10;;;;;;5128797;28;20516;-60
2022/04/16 10:58:46;;;;;;;1.10;0.20;;;16.60;41.90;;;;;;5129981;28;20097;-62
2022/04/16 11:01:22;;;;;;;0.65;0.10;;;16.60;42.10;;;;;;5128078;28;20035;-64
2022/04/16 11:03:48;;;;;;;1.08;0.20;;;16.60;42.00;;;;;;5128790;28;20050;-63
2022/04/16 11:06:16;;;;;;;0.70;0.20;;;16.60;42.10;;;;;;5129897;28;20028;-64
2022/04/16 11:08:45;;;;;;;0.90;0.25;;;16.50;42.10;;;;;;5128404;28;20046;-64
2022/04/16 11:11:12;;;;;;;1.02;0.22;;;16.50;42.20;;;;;;5128530;27;20047;-65
2022/04/16 11:13:39;;;;;;;0.55;0.10;;;16.50;41.80;;;;;;5129635;28;20504;-66
2022/04/16 11:16:06;;;;;;;0.82;0.13;;;16.50;42.10;;;;;;5129647;28;20469;-64
2022/04/16 11:18:47;;;;;;;1.15;0.20;;;16.50;41.90;;;;;;5129461;28;20039;-63
2022/04/16 11:23:53;;;;;;;0.65;0.20;;;16.50;41.90;;;;;;5130295;27;20354;-64
2022/04/16 11:34:49;;;;;;;0.93;0.20;;;16.40;41.70;;;;;;5128686;28;20058;-60
2022/04/16 11:37:15;;;;;;;0.68;0.13;;;16.40;41.50;;;;;;5130139;27;20126;-64
2022/04/16 11:39:41;;;;;;;0.30;0.10;;;16.40;41.60;;;;;;5131999;27;20063;-64
2022/04/16 11:42:07;;;;;;;1.50;0.10;;;16.40;41.50;;;;;;5129888;28;20092;-63
2022/04/16 11:44:42;;;;;;;0.98;0.20;;;16.40;41.50;;;;;;5128930;28;20043;-65
2022/04/16 11:47:10;;;;;;;0.50;0.10;;;16.40;41.40;;;;;;5130128;27;20047;-65
2022/04/16 11:49:37;;;;;;;0.30;0.10;;;16.40;41.40;;;;;;5128667;28;20042;-60
2022/04/16 11:52:04;;;;;;;0.75;0.10;;;16.40;41.20;;;;;;5129047;28;20047;-64
2022/04/16 11:54:30;;;;;;;0.80;0.20;;;16.40;41.20;;;;;;5128616;28;20092;-60
2022/04/16 11:56:57;;;;;;;0.30;0.10;;;16.40;41.00;;;;;;5111322;28;20541;-64
2022/04/16 11:59:28;;;;;;;1.13;0.55;;;16.30;40.90;;;;;;5129808;27;20083;-61
2022/04/16 12:02:09;;;;;;;0.22;0.10;;;16.40;41.00;;;;;;5129811;27;20043;-63
2022/04/16 12:07:17;;;;;;;0.63;0.10;;;16.40;40.90;;;;;;5130240;27;20407;-64
2022/04/16 12:09:45;;;;;;;0.50;0.10;;;16.40;40.90;;;;;;5128921;28;20112;-66
2022/04/16 12:12:21;;;;;;;0.50;0.10;;;16.40;40.70;;;;;;5130189;27;20038;-63
2022/04/16 12:14:50;;;;;;;0.40;0.10;;;16.40;40.60;;;;;;5128897;28;20419;-62
2022/04/16 12:17:31;;;;;;;2.38;0.10;;;16.40;40.50;;;;;;5146308;27;20406;-64
2022/04/16 12:20:06;;;;;;;0.38;0.10;;;16.40;40.00;;;;;;5128917;28;20054;-64
2022/04/16 12:22:33;;;;;;;0.45;0.10;;;16.40;40.30;;;;;;5130226;27;20036;-63
2022/04/16 12:25:10;;;;;;;0.95;0.10;;;16.40;40.20;;;;;;5128616;28;20047;-64
2022/04/16 12:27:42;;;;;;;0.40;0.10;;;16.40;40.00;;;;;;5128637;28;20047;-64
2022/04/16 12:30:08;;;;;;;0.90;0.10;;;16.40;40.10;;;;;;5128609;28;20087;-65
2022/04/16 12:32:36;;;;;;;0.22;0.10;;;16.40;40.00;;;;;;5128721;28;20445;-64
2022/04/16 12:35:02;;;;;;;0.52;0.10;;;16.40;40.00;;;;;;5145705;27;20036;-64
2022/04/16 12:37:28;;;;;;;0.73;0.10;;;16.40;40.00;;;;;;5127721;27;20051;-64
2022/04/16 12:39:53;;;;;;;0.30;0.10;;;16.40;40.00;;;;;;5128206;28;20137;-64
2022/04/16 12:42:19;;;;;;;0.30;0.00;;;16.40;39.90;;;;;;5128704;28;20188;-62
2022/04/16 12:44:45;;;;;;;0.20;0.10;;;16.40;39.90;;;;;;5128211;28;20039;-64
2022/04/16 12:47:10;;;;;;;0.52;0.10;;;16.40;39.40;;;;;;5128145;27;20040;-63
2022/04/16 12:49:36;;;;;;;0.32;0.10;;;16.40;39.50;;;;;;5128227;28;20039;-64
2022/04/16 12:52:02;;;;;;;0.40;0.10;;;16.50;39.60;;;;;;5128353;28;20035;-64
2022/04/16 12:54:27;;;;;;;0.55;0.10;;;16.50;39.50;;;;;;5128455;28;20043;-64
2022/04/16 12:56:53;;;;;;;1.00;0.10;;;16.50;39.30;;;;;;5127972;28;20379;-64
2022/04/16 12:59:18;;;;;;;0.75;0.10;;;16.40;39.20;;;;;;5129460;27;20080;-65
2022/04/16 13:01:44;;;;;;;0.30;0.10;;;16.50;39.40;;;;;;5128049;28;20654;-66
2022/04/16 13:04:10;;;;;;;0.32;0.10;;;16.50;39.10;;;;;;5128060;28;20047;-60
2022/04/16 13:06:35;;;;;;;1.58;0.10;;;16.50;39.10;;;;;;5127501;27;20091;-64
2022/04/16 13:09:02;;;;;;;0.13;0.00;;;16.50;39.10;;;;;;5127854;27;20050;-64
2022/04/16 13:11:28;;;;;;;0.80;0.10;;;16.50;39.20;;;;;;5129045;27;20075;-62
2022/04/16 13:13:55;;;;;;;0.60;0.10;;;16.50;39.10;;;;;;5129115;28;20440;-63
2022/04/16 13:16:20;;;;;;;0.50;0.10;;;16.50;39.10;;;;;;5128699;28;20039;-65
2022/04/16 13:18:48;;;;;;;0.28;0.03;;;16.50;38.90;;;;;;5113613;28;20479;-64
2022/04/16 13:21:15;;;;;;;0.20;0.10;;;16.50;38.90;;;;;;5114149;28;20043;-64
2022/04/16 13:23:41;;;;;;;0.47;0.08;;;16.50;38.80;;;;;;5113944;28;20071;-64